sensor_id;sensor_type;location;lat;lon;timestamp;pressure;altitude;pressure_sealevel;temperature;humidity
44839;BME280;30576;42.098;24.876;2023-05-09T00:17:17;100116.47;;;12.85;100.00
44839;BME280;30576;42.098;24.876;2023-05-09T00:19:43;100136.50;;;13.00;100.00
44839;BME280;30576;42.098;24.876;2023-05-09T00:22:08;100093.50;;;12.87;100.00
44839;BME280;30576;42.098;24.876;2023-05-09T00:24:34;100091.84;;;12.80;100.00
44839;BME280;30576;42.098;24.876;2023-05-09T00:26:59;100130.88;;;13.18;100.00
44839;BME280;30576;42.098;24.876;2023-05-09T00:29:25;100119.66;;;13.05;100.00
44839;BME280;30576;42.098;24.876;2023-05-09T00:31:51;100057.59;;;12.72;100.00
44839;BME280;30576;42.098;24.876;2023-05-09T00:34:16;100131.06;;;13.09;100.00
44839;BME280;30576;42.098;24.876;2023-05-09T00:36:42;100098.00;;;12.80;100.00
44839;BME280;30576;42.098;24.876;2023-05-09T00:39:07;100130.44;;;12.95;100.00
44839;BME280;30576;42.098;24.876;2023-05-09T00:41:33;100105.31;;;12.67;100.00
44839;BME280;30576;42.098;24.876;2023-05-09T00:43:59;100060.69;;;12.46;100.00
44839;BME280;30576;42.098;24.876;2023-05-09T00:46:24;100131.53;;;12.81;100.00
44839;BME280;30576;42.098;24.876;2023-05-09T00:48:50;100126.41;;;12.72;100.00
44839;BME280;30576;42.098;24.876;2023-05-09T00:51:16;100114.09;;;12.68;100.00
44839;BME280;30576;42.098;24.876;2023-05-09T00:53:43;100109.06;;;12.52;100.00
44839;BME280;30576;42.098;24.876;2023-05-09T00:56:10;100114.03;;;12.72;100.00
44839;BME280;30576;42.098;24.876;2023-05-09T00:58:36;100110.22;;;12.89;100.00
44839;BME280;30576;42.098;24.876;2023-05-09T01:01:02;100121.94;;;12.74;100.00
44839;BME280;30576;42.098;24.876;2023-05-09T01:03:27;100137.09;;;12.66;100.00
44839;BME280;30576;42.098;24.876;2023-05-09T01:08:58;100111.50;;;12.65;100.00
44839;BME280;30576;42.098;24.876;2023-05-09T01:16:41;100132.69;;;12.65;100.00
44839;BME280;30576;42.098;24.876;2023-05-09T01:22:06;100129.50;;;12.44;100.00
44839;BME280;30576;42.098;24.876;2023-05-09T01:25:05;100123.28;;;12.47;100.00
44839;BME280;30576;42.098;24.876;2023-05-09T01:30:11;100155.03;;;12.48;100.00
44839;BME280;30576;42.098;24.876;2023-05-09T01:32:38;100144.66;;;12.34;100.00
44839;BME280;30576;42.098;24.876;2023-05-09T01:35:05;100113.13;;;12.21;100.00
44839;BME280;30576;42.098;24.876;2023-05-09T01:37:35;100143.84;;;12.28;100.00
44839;BME280;30576;42.098;24.876;2023-05-09T01:40:06;100144.34;;;12.54;100.00
44839;BME280;30576;42.098;24.876;2023-05-09T01:42:38;100143.47;;;12.52;100.00
44839;BME280;30576;42.098;24.876;2023-05-09T01:45:06;100123.53;;;12.31;100.00
44839;BME280;30576;42.098;24.876;2023-05-09T01:47:32;100113.75;;;12.36;100.00
44839;BME280;30576;42.098;24.876;2023-05-09T01:50:00;100097.28;;;12.19;100.00
44839;BME280;30576;42.098;24.876;2023-05-09T01:52:28;100101.63;;;12.22;100.00
44839;BME280;30576;42.098;24.876;2023-05-09T01:54:54;100128.72;;;12.39;100.00
44839;BME280;30576;42.098;24.876;2023-05-09T01:57:21;100136.47;;;12.51;100.00
44839;BME280;30576;42.098;24.876;2023-05-09T01:59:48;100115.38;;;12.45;100.00
44839;BME280;30576;42.098;24.876;2023-05-09T02:02:14;100112.94;;;12.33;100.00
44839;BME280;30576;42.098;24.876;2023-05-09T02:04:40;100129.69;;;12.32;100.00
44839;BME280;30576;42.098;24.876;2023-05-09T02:07:07;100150.00;;;12.31;100.00
44839;BME280;30576;42.098;24.876;2023-05-09T02:09:32;100159.50;;;12.43;100.00
44839;BME280;30576;42.098;24.876;2023-05-09T02:11:58;100162.31;;;12.31;100.00
44839;BME280;30576;42.098;24.876;2023-05-09T02:14:23;100164.25;;;12.20;100.00
44839;BME280;30576;42.098;24.876;2023-05-09T02:16:49;100136.91;;;12.22;100.00
44839;BME280;30576;42.098;24.876;2023-05-09T02:19:14;100115.16;;;12.00;100.00
44839;BME280;30576;42.098;24.876;2023-05-09T02:21:41;100156.25;;;12.24;100.00
44839;BME280;30576;42.098;24.876;2023-05-09T02:24:06;100124.41;;;12.30;100.00
44839;BME280;30576;42.098;24.876;2023-05-09T02:26:32;100167.38;;;12.46;100.00
44839;BME280;30576;42.098;24.876;2023-05-09T02:28:59;100151.53;;;12.45;100.00
44839;BME280;30576;42.098;24.876;2023-05-09T02:31:27;100166.75;;;12.30;100.00
44839;BME280;30576;42.098;24.876;2023-05-09T02:33:54;100178.69;;;12.58;100.00
44839;BME280;30576;42.098;24.876;2023-05-09T02:36:21;100166.22;;;12.66;100.00
44839;BME280;30576;42.098;24.876;2023-05-09T02:38:46;100130.59;;;12.29;100.00
44839;BME280;30576;42.098;24.876;2023-05-09T02:41:13;100178.50;;;12.70;100.00
44839;BME280;30576;42.098;24.876;2023-05-09T02:43:38;100162.94;;;12.50;100.00
44839;BME280;30576;42.098;24.876;2023-05-09T02:46:04;100179.69;;;12.49;100.00
44839;BME280;30576;42.098;24.876;2023-05-09T02:48:29;100172.81;;;12.37;100.00
44839;BME280;30576;42.098;24.876;2023-05-09T02:50:55;100175.09;;;12.60;100.00
44839;BME280;30576;42.098;24.876;2023-05-09T02:53:21;100164.63;;;12.54;100.00
44839;BME280;30576;42.098;24.876;2023-05-09T02:55:47;100184.38;;;12.89;100.00
44839;BME280;30576;42.098;24.876;2023-05-09T02:58:12;100172.06;;;12.85;100.00
44839;BME280;30576;42.098;24.876;2023-05-09T03:00:37;100193.25;;;12.85;100.00
44839;BME280;30576;42.098;24.876;2023-05-09T03:03:03;100196.00;;;12.79;100.00
44839;BME280;30576;42.098;24.876;2023-05-09T03:05:28;100195.78;;;12.91;100.00
44839;BME280;30576;42.098;24.876;2023-05-09T03:07:54;100145.78;;;12.74;100.00
44839;BME280;30576;42.098;24.876;2023-05-09T03:10:19;100204.53;;;12.98;100.00
44839;BME280;30576;42.098;24.876;2023-05-09T03:12:44;100193.06;;;12.96;100.00
44839;BME280;30576;42.098;24.876;2023-05-09T03:15:10;100211.56;;;12.97;100.00
44839;BME280;30576;42.098;24.876;2023-05-09T03:17:35;100214.22;;;12.97;100.00
44839;BME280;30576;42.098;24.876;2023-05-09T03:20:01;100167.03;;;12.68;100.00
44839;BME280;30576;42.098;24.876;2023-05-09T03:22:27;100222.34;;;12.86;100.00
44839;BME280;30576;42.098;24.876;2023-05-09T03:24:53;100171.75;;;12.50;100.00
44839;BME280;30576;42.098;24.876;2023-05-09T03:27:18;100211.03;;;12.77;100.00
44839;BME280;30576;42.098;24.876;2023-05-09T03:29:44;100226.03;;;12.78;100.00
44839;BME280;30576;42.098;24.876;2023-05-09T03:32:09;100219.84;;;12.77;100.00
44839;BME280;30576;42.098;24.876;2023-05-09T03:34:34;100222.56;;;12.72;100.00
44839;BME280;30576;42.098;24.876;2023-05-09T03:37:00;100197.13;;;12.64;100.00
44839;BME280;30576;42.098;24.876;2023-05-09T03:39:25;100234.09;;;12.70;100.00
44839;BME280;30576;42.098;24.876;2023-05-09T03:41:50;100218.47;;;12.51;100.00
44839;BME280;30576;42.098;24.876;2023-05-09T03:44:16;100224.53;;;12.60;100.00
44839;BME280;30576;42.098;24.876;2023-05-09T03:46:41;100200.97;;;12.41;100.00
44839;BME280;30576;42.098;24.876;2023-05-09T03:49:07;100234.94;;;12.72;100.00
44839;BME280;30576;42.098;24.876;2023-05-09T03:51:32;100238.09;;;12.96;100.00
44839;BME280;30576;42.098;24.876;2023-05-09T03:53:57;100235.09;;;12.61;100.00
44839;BME280;30576;42.098;24.876;2023-05-09T03:56:23;100195.19;;;12.14;100.00
44839;BME280;30576;42.098;24.876;2023-05-09T03:58:48;100235.16;;;12.57;100.00
44839;BME280;30576;42.098;24.876;2023-05-09T04:01:14;100208.22;;;12.28;100.00
44839;BME280;30576;42.098;24.876;2023-05-09T04:03:39;100243.06;;;12.58;100.00
44839;BME280;30576;42.098;24.876;2023-05-09T04:06:05;100207.19;;;12.39;100.00
44839;BME280;30576;42.098;24.876;2023-05-09T04:08:31;100243.13;;;12.55;100.00
44839;BME280;30576;42.098;24.876;2023-05-09T04:10:57;100181.78;;;12.28;100.00
44839;BME280;30576;42.098;24.876;2023-05-09T04:13:22;100240.38;;;12.61;100.00
44839;BME280;30576;42.098;24.876;2023-05-09T04:15:47;100237.75;;;12.61;100.00
44839;BME280;30576;42.098;24.876;2023-05-09T04:18:13;100212.50;;;12.35;100.00
44839;BME280;30576;42.098;24.876;2023-05-09T04:20:38;100238.81;;;12.48;100.00
44839;BME280;30576;42.098;24.876;2023-05-09T04:23:04;100200.41;;;12.21;100.00
44839;BME280;30576;42.098;24.876;2023-05-09T04:25:30;100240.34;;;12.64;100.00
44839;BME280;30576;42.098;24.876;2023-05-09T04:27:56;100201.09;;;12.33;100.00
44839;BME280;30576;42.098;24.876;2023-05-09T04:30:22;100192.47;;;12.19;100.00
44839;BME280;30576;42.098;24.876;2023-05-09T04:32:47;100238.03;;;12.41;100.00
44839;BME280;30576;42.098;24.876;2023-05-09T04:35:14;100204.69;;;12.28;100.00
44839;BME280;30576;42.098;24.876;2023-05-09T04:37:39;100248.06;;;12.80;100.00
44839;BME280;30576;42.098;24.876;2023-05-09T04:40:05;100218.47;;;12.53;100.00
44839;BME280;30576;42.098;24.876;2023-05-09T04:42:32;100238.72;;;12.54;100.00
44839;BME280;30576;42.098;24.876;2023-05-09T04:44:58;100217.44;;;12.60;100.00
44839;BME280;30576;42.098;24.876;2023-05-09T04:47:23;100244.31;;;12.93;100.00
44839;BME280;30576;42.098;24.876;2023-05-09T04:49:49;100198.16;;;12.53;100.00
44839;BME280;30576;42.098;24.876;2023-05-09T04:52:14;100205.47;;;12.36;100.00
44839;BME280;30576;42.098;24.876;2023-05-09T04:54:39;100255.56;;;12.48;100.00
44839;BME280;30576;42.098;24.876;2023-05-09T04:57:05;100253.66;;;12.58;100.00
44839;BME280;30576;42.098;24.876;2023-05-09T04:59:31;100222.75;;;12.60;100.00
44839;BME280;30576;42.098;24.876;2023-05-09T05:01:56;100260.31;;;12.85;100.00
44839;BME280;30576;42.098;24.876;2023-05-09T05:04:22;100229.78;;;12.61;100.00
44839;BME280;30576;42.098;24.876;2023-05-09T05:06:47;100259.78;;;12.62;100.00
44839;BME280;30576;42.098;24.876;2023-05-09T05:09:13;100234.66;;;12.30;100.00
44839;BME280;30576;42.098;24.876;2023-05-09T05:11:38;100264.28;;;12.57;100.00
44839;BME280;30576;42.098;24.876;2023-05-09T05:14:03;100268.78;;;12.50;100.00
44839;BME280;30576;42.098;24.876;2023-05-09T05:16:29;100210.72;;;12.39;100.00
44839;BME280;30576;42.098;24.876;2023-05-09T05:18:55;100271.25;;;12.62;100.00
44839;BME280;30576;42.098;24.876;2023-05-09T05:21:20;100241.56;;;12.40;100.00
44839;BME280;30576;42.098;24.876;2023-05-09T05:23:46;100268.94;;;12.38;100.00
44839;BME280;30576;42.098;24.876;2023-05-09T05:26:11;100255.81;;;12.30;100.00
44839;BME280;30576;42.098;24.876;2023-05-09T05:28:37;100242.50;;;12.38;100.00
44839;BME280;30576;42.098;24.876;2023-05-09T05:31:02;100274.97;;;12.49;100.00
44839;BME280;30576;42.098;24.876;2023-05-09T05:33:28;100262.75;;;12.39;100.00
44839;BME280;30576;42.098;24.876;2023-05-09T05:35:53;100268.63;;;12.62;100.00
44839;BME280;30576;42.098;24.876;2023-05-09T05:38:18;100267.69;;;12.63;100.00
44839;BME280;30576;42.098;24.876;2023-05-09T05:40:44;100239.97;;;12.28;100.00
44839;BME280;30576;42.098;24.876;2023-05-09T05:43:09;100272.41;;;12.43;100.00
44839;BME280;30576;42.098;24.876;2023-05-09T05:45:35;100270.47;;;12.54;100.00
44839;BME280;30576;42.098;24.876;2023-05-09T05:48:00;100277.16;;;12.80;100.00
44839;BME280;30576;42.098;24.876;2023-05-09T05:50:26;100295.81;;;12.72;100.00
44839;BME280;30576;42.098;24.876;2023-05-09T05:52:52;100287.81;;;12.77;100.00
44839;BME280;30576;42.098;24.876;2023-05-09T05:55:18;100239.91;;;12.33;100.00
44839;BME280;30576;42.098;24.876;2023-05-09T05:57:43;100289.78;;;12.62;100.00
44839;BME280;30576;42.098;24.876;2023-05-09T06:00:09;100282.13;;;12.41;100.00
44839;BME280;30576;42.098;24.876;2023-05-09T06:02:35;100242.47;;;12.39;100.00
44839;BME280;30576;42.098;24.876;2023-05-09T06:05:02;100287.22;;;12.56;100.00
44839;BME280;30576;42.098;24.876;2023-05-09T06:07:28;100265.19;;;12.54;100.00
44839;BME280;30576;42.098;24.876;2023-05-09T06:09:53;100284.53;;;12.59;100.00
44839;BME280;30576;42.098;24.876;2023-05-09T06:12:19;100259.22;;;12.38;100.00
44839;BME280;30576;42.098;24.876;2023-05-09T06:14:45;100277.59;;;12.49;100.00
44839;BME280;30576;42.098;24.876;2023-05-09T06:17:10;100278.47;;;12.49;100.00
44839;BME280;30576;42.098;24.876;2023-05-09T06:19:35;100282.72;;;12.61;100.00
44839;BME280;30576;42.098;24.876;2023-05-09T06:22:01;100287.91;;;12.69;100.00
44839;BME280;30576;42.098;24.876;2023-05-09T06:24:27;100290.84;;;12.47;100.00
44839;BME280;30576;42.098;24.876;2023-05-09T06:26:52;100292.50;;;12.58;100.00
44839;BME280;30576;42.098;24.876;2023-05-09T06:29:18;100286.31;;;12.57;100.00
44839;BME280;30576;42.098;24.876;2023-05-09T06:31:43;100282.72;;;12.61;100.00
44839;BME280;30576;42.098;24.876;2023-05-09T06:34:08;100237.31;;;12.28;100.00
44839;BME280;30576;42.098;24.876;2023-05-09T06:36:34;100287.13;;;12.62;100.00
44839;BME280;30576;42.098;24.876;2023-05-09T06:38:59;100283.66;;;12.57;100.00
44839;BME280;30576;42.098;24.876;2023-05-09T06:41:25;100244.19;;;12.42;100.00
44839;BME280;30576;42.098;24.876;2023-05-09T06:43:51;100289.66;;;12.71;100.00
44839;BME280;30576;42.098;24.876;2023-05-09T06:46:16;100274.16;;;13.04;100.00
44839;BME280;30576;42.098;24.876;2023-05-09T06:48:42;100287.19;;;13.17;100.00
44839;BME280;30576;42.098;24.876;2023-05-09T06:51:07;100281.09;;;13.13;100.00
44839;BME280;30576;42.098;24.876;2023-05-09T06:53:33;100268.94;;;12.98;98.86
44839;BME280;30576;42.098;24.876;2023-05-09T06:55:59;100256.66;;;12.93;99.88
44839;BME280;30576;42.098;24.876;2023-05-09T06:58:24;100282.22;;;12.97;100.00
44839;BME280;30576;42.098;24.876;2023-05-09T07:00:51;100208.00;;;12.44;99.44
44839;BME280;30576;42.098;24.876;2023-05-09T07:03:17;100234.19;;;12.64;100.00
44839;BME280;30576;42.098;24.876;2023-05-09T07:05:43;100303.13;;;13.15;98.83
44839;BME280;30576;42.098;24.876;2023-05-09T07:08:08;100295.25;;;13.09;99.48
44839;BME280;30576;42.098;24.876;2023-05-09T07:10:34;100268.38;;;12.79;100.00
44839;BME280;30576;42.098;24.876;2023-05-09T07:12:59;100292.03;;;12.90;100.00
44839;BME280;30576;42.098;24.876;2023-05-09T07:15:24;100278.81;;;12.88;100.00
44839;BME280;30576;42.098;24.876;2023-05-09T07:17:50;100271.09;;;12.75;100.00
44839;BME280;30576;42.098;24.876;2023-05-09T07:20:16;100270.78;;;12.95;99.76
44839;BME280;30576;42.098;24.876;2023-05-09T07:22:42;100299.88;;;12.96;98.74
44839;BME280;30576;42.098;24.876;2023-05-09T07:25:08;100297.16;;;13.01;99.27
44839;BME280;30576;42.098;24.876;2023-05-09T07:27:34;100280.94;;;12.63;98.38
44839;BME280;30576;42.098;24.876;2023-05-09T07:30:02;100269.31;;;12.75;98.85
44839;BME280;30576;42.098;24.876;2023-05-09T07:32:27;100264.69;;;12.88;97.94
44839;BME280;30576;42.098;24.876;2023-05-09T07:34:53;100270.09;;;12.80;98.50
44839;BME280;30576;42.098;24.876;2023-05-09T07:37:18;100294.56;;;12.98;99.83
44839;BME280;30576;42.098;24.876;2023-05-09T07:39:44;100280.19;;;13.13;98.50
44839;BME280;30576;42.098;24.876;2023-05-09T07:42:11;100291.16;;;13.47;97.65
44839;BME280;30576;42.098;24.876;2023-05-09T07:44:37;100266.22;;;13.56;96.77
44839;BME280;30576;42.098;24.876;2023-05-09T07:47:02;100308.75;;;13.50;95.27
44839;BME280;30576;42.098;24.876;2023-05-09T07:49:29;100277.50;;;13.16;96.01
44839;BME280;30576;42.098;24.876;2023-05-09T07:51:55;100307.84;;;13.52;95.62
44839;BME280;30576;42.098;24.876;2023-05-09T07:54:20;100314.66;;;13.67;96.05
44839;BME280;30576;42.098;24.876;2023-05-09T07:56:46;100261.22;;;13.39;94.51
44839;BME280;30576;42.098;24.876;2023-05-09T07:59:11;100291.41;;;13.30;95.05
44839;BME280;30576;42.098;24.876;2023-05-09T08:01:36;100305.63;;;13.23;96.46
44839;BME280;30576;42.098;24.876;2023-05-09T08:04:02;100314.16;;;13.43;96.90
44839;BME280;30576;42.098;24.876;2023-05-09T08:06:29;100324.84;;;13.39;96.86
44839;BME280;30576;42.098;24.876;2023-05-09T08:08:55;100290.84;;;13.08;96.57
44839;BME280;30576;42.098;24.876;2023-05-09T08:11:20;100273.22;;;13.07;96.03
44839;BME280;30576;42.098;24.876;2023-05-09T08:13:46;100268.13;;;12.95;95.58
44839;BME280;30576;42.098;24.876;2023-05-09T08:16:12;100244.88;;;12.56;97.60
44839;BME280;30576;42.098;24.876;2023-05-09T08:18:37;100313.31;;;12.84;99.16
44839;BME280;30576;42.098;24.876;2023-05-09T08:21:03;100283.47;;;12.69;99.18
44839;BME280;30576;42.098;24.876;2023-05-09T08:23:28;100307.22;;;12.76;98.72
44839;BME280;30576;42.098;24.876;2023-05-09T08:25:54;100309.09;;;12.69;99.67
44839;BME280;30576;42.098;24.876;2023-05-09T08:28:20;100293.22;;;12.69;99.92
44839;BME280;30576;42.098;24.876;2023-05-09T08:30:49;100297.81;;;12.56;99.25
44839;BME280;30576;42.098;24.876;2023-05-09T08:33:15;100322.31;;;12.69;98.86
44839;BME280;30576;42.098;24.876;2023-05-09T08:35:41;100250.25;;;12.50;98.79
44839;BME280;30576;42.098;24.876;2023-05-09T08:38:06;100309.56;;;12.97;98.68
44839;BME280;30576;42.098;24.876;2023-05-09T08:40:35;100292.94;;;12.87;98.10
44839;BME280;30576;42.098;24.876;2023-05-09T08:43:02;100310.59;;;12.88;98.13
44839;BME280;30576;42.098;24.876;2023-05-09T08:45:34;100249.44;;;12.43;98.56
44839;BME280;30576;42.098;24.876;2023-05-09T08:48:05;100299.00;;;12.94;98.01
44839;BME280;30576;42.098;24.876;2023-05-09T08:50:31;100275.47;;;12.74;97.38
44839;BME280;30576;42.098;24.876;2023-05-09T08:52:57;100287.50;;;12.97;96.70
44839;BME280;30576;42.098;24.876;2023-05-09T08:55:23;100292.53;;;13.14;95.84
44839;BME280;30576;42.098;24.876;2023-05-09T08:57:51;100304.25;;;12.97;94.75
44839;BME280;30576;42.098;24.876;2023-05-09T09:00:17;100311.09;;;13.12;95.69
44839;BME280;30576;42.098;24.876;2023-05-09T09:02:45;100280.34;;;13.03;94.91
44839;BME280;30576;42.098;24.876;2023-05-09T09:05:10;100284.84;;;12.97;94.57
44839;BME280;30576;42.098;24.876;2023-05-09T09:07:36;100312.00;;;13.10;93.93
44839;BME280;30576;42.098;24.876;2023-05-09T09:10:03;100280.47;;;12.94;94.09
44839;BME280;30576;42.098;24.876;2023-05-09T09:12:28;100311.09;;;13.12;94.89
44839;BME280;30576;42.098;24.876;2023-05-09T09:14:55;100276.78;;;13.04;94.74
44839;BME280;30576;42.098;24.876;2023-05-09T09:17:27;100285.75;;;12.96;92.39
44839;BME280;30576;42.098;24.876;2023-05-09T09:19:57;100286.66;;;12.96;92.18
44839;BME280;30576;42.098;24.876;2023-05-09T09:22:31;100295.47;;;12.95;92.79
44839;BME280;30576;42.098;24.876;2023-05-09T09:25:01;100309.06;;;13.30;91.87
44839;BME280;30576;42.098;24.876;2023-05-09T09:27:27;100261.19;;;12.86;91.38
44839;BME280;30576;42.098;24.876;2023-05-09T09:29:52;100305.94;;;13.04;92.55
44839;BME280;30576;42.098;24.876;2023-05-09T09:32:18;100276.06;;;12.95;92.60
44839;BME280;30576;42.098;24.876;2023-05-09T09:34:44;100309.41;;;13.06;92.39
44839;BME280;30576;42.098;24.876;2023-05-09T09:37:22;100289.69;;;12.70;92.80
44839;BME280;30576;42.098;24.876;2023-05-09T09:39:55;100313.91;;;13.01;93.50
44839;BME280;30576;42.098;24.876;2023-05-09T09:42:21;100290.81;;;13.11;91.36
44839;BME280;30576;42.098;24.876;2023-05-09T09:45:18;100310.22;;;13.13;91.29
44839;BME280;30576;42.098;24.876;2023-05-09T09:47:45;100307.34;;;13.27;90.26
44839;BME280;30576;42.098;24.876;2023-05-09T09:50:15;100280.13;;;13.17;89.46
44839;BME280;30576;42.098;24.876;2023-05-09T09:52:42;100310.16;;;13.18;89.52
44839;BME280;30576;42.098;24.876;2023-05-09T09:55:09;100281.91;;;13.15;91.04
44839;BME280;30576;42.098;24.876;2023-05-09T09:57:36;100306.09;;;13.50;92.21
44839;BME280;30576;42.098;24.876;2023-05-09T10:00:06;100276.41;;;13.28;89.42
44839;BME280;30576;42.098;24.876;2023-05-09T10:02:32;100269.63;;;13.10;89.59
44839;BME280;30576;42.098;24.876;2023-05-09T10:05:21;100295.06;;;13.21;89.70
44839;BME280;30576;42.098;24.876;2023-05-09T10:10:19;100265.94;;;13.21;90.74
44839;BME280;30576;42.098;24.876;2023-05-09T10:12:45;100269.06;;;13.45;90.48
44839;BME280;30576;42.098;24.876;2023-05-09T10:15:12;100267.88;;;13.63;89.06
44839;BME280;30576;42.098;24.876;2023-05-09T10:17:40;100286.94;;;13.84;89.86
44839;BME280;30576;42.098;24.876;2023-05-09T10:20:07;100266.69;;;13.81;88.02
44839;BME280;30576;42.098;24.876;2023-05-09T10:22:37;100272.28;;;13.64;86.10
44839;BME280;30576;42.098;24.876;2023-05-09T10:25:19;100282.44;;;13.89;87.31
44839;BME280;30576;42.098;24.876;2023-05-09T10:27:46;100293.47;;;13.66;87.29
44839;BME280;30576;42.098;24.876;2023-05-09T10:30:17;100275.31;;;13.42;86.86
44839;BME280;30576;42.098;24.876;2023-05-09T10:35:12;100263.97;;;13.34;87.31
44839;BME280;30576;42.098;24.876;2023-05-09T10:37:41;100281.81;;;13.74;87.01
44839;BME280;30576;42.098;24.876;2023-05-09T10:40:07;100287.00;;;13.79;88.09
44839;BME280;30576;42.098;24.876;2023-05-09T10:42:33;100279.25;;;13.68;86.00
44839;BME280;30576;42.098;24.876;2023-05-09T10:44:59;100326.53;;;13.93;86.87
44839;BME280;30576;42.098;24.876;2023-05-09T10:47:26;100279.53;;;13.53;84.76
44839;BME280;30576;42.098;24.876;2023-05-09T10:49:52;100320.81;;;13.68;85.43
44839;BME280;30576;42.098;24.876;2023-05-09T10:52:20;100286.66;;;13.51;85.26
44839;BME280;30576;42.098;24.876;2023-05-09T10:54:57;100292.28;;;13.81;85.58
44839;BME280;30576;42.098;24.876;2023-05-09T10:57:25;100289.00;;;13.68;86.12
44839;BME280;30576;42.098;24.876;2023-05-09T10:59:51;100297.00;;;13.66;86.72
44839;BME280;30576;42.098;24.876;2023-05-09T11:02:20;100309.78;;;13.91;85.81
44839;BME280;30576;42.098;24.876;2023-05-09T11:04:46;100262.28;;;13.78;85.37
44839;BME280;30576;42.098;24.876;2023-05-09T11:07:23;100299.91;;;13.99;84.31
44839;BME280;30576;42.098;24.876;2023-05-09T11:09:52;100305.25;;;13.96;84.49
44839;BME280;30576;42.098;24.876;2023-05-09T11:12:31;100294.78;;;13.90;84.53
44839;BME280;30576;42.098;24.876;2023-05-09T11:15:06;100274.84;;;13.69;84.94
44839;BME280;30576;42.098;24.876;2023-05-09T11:17:37;100298.25;;;13.93;85.17
44839;BME280;30576;42.098;24.876;2023-05-09T11:20:04;100308.09;;;14.32;84.86
44839;BME280;30576;42.098;24.876;2023-05-09T11:25:07;100257.56;;;13.94;83.08
44839;BME280;30576;42.098;24.876;2023-05-09T11:27:47;100282.44;;;13.89;83.02
44839;BME280;30576;42.098;24.876;2023-05-09T11:30:15;100275.78;;;14.11;83.77
44839;BME280;30576;42.098;24.876;2023-05-09T11:33:22;100284.78;;;14.04;82.46
44839;BME280;30576;42.098;24.876;2023-05-09T11:38:41;100246.28;;;14.27;81.36
44839;BME280;30576;42.098;24.876;2023-05-09T11:41:07;100292.97;;;14.36;80.65
44839;BME280;30576;42.098;24.876;2023-05-09T11:43:35;100259.59;;;14.24;82.28
44839;BME280;30576;42.098;24.876;2023-05-09T11:46:01;100280.75;;;14.28;81.07
44839;BME280;30576;42.098;24.876;2023-05-09T11:48:27;100260.25;;;14.37;81.17
44839;BME280;30576;42.098;24.876;2023-05-09T11:50:53;100264.22;;;14.56;80.85
44839;BME280;30576;42.098;24.876;2023-05-09T11:53:18;100279.28;;;14.56;80.86
44839;BME280;30576;42.098;24.876;2023-05-09T11:55:43;100296.31;;;14.45;80.13
44839;BME280;30576;42.098;24.876;2023-05-09T11:58:09;100274.31;;;14.40;80.73
44839;BME280;30576;42.098;24.876;2023-05-09T12:00:35;100265.06;;;14.16;79.85
44839;BME280;30576;42.098;24.876;2023-05-09T12:03:07;100266.44;;;14.36;80.91
44839;BME280;30576;42.098;24.876;2023-05-09T12:05:33;100271.84;;;14.31;79.71
44839;BME280;30576;42.098;24.876;2023-05-09T12:08:02;100293.84;;;14.36;78.64
44839;BME280;30576;42.098;24.876;2023-05-09T12:10:28;100294.63;;;14.43;78.76
44839;BME280;30576;42.098;24.876;2023-05-09T12:12:54;100277.13;;;14.32;78.76
44839;BME280;30576;42.098;24.876;2023-05-09T12:15:21;100255.78;;;14.37;78.25
44839;BME280;30576;42.098;24.876;2023-05-09T12:17:47;100262.72;;;14.44;77.85
44839;BME280;30576;42.098;24.876;2023-05-09T12:20:24;100235.84;;;14.60;77.93
44839;BME280;30576;42.098;24.876;2023-05-09T12:22:52;100287.31;;;14.93;78.14
44839;BME280;30576;42.098;24.876;2023-05-09T12:25:17;100248.44;;;14.91;77.97
44839;BME280;30576;42.098;24.876;2023-05-09T12:27:42;100275.31;;;15.14;76.71
44839;BME280;30576;42.098;24.876;2023-05-09T12:30:08;100231.16;;;15.09;78.16
44839;BME280;30576;42.098;24.876;2023-05-09T12:32:35;100239.75;;;15.20;76.99
44839;BME280;30576;42.098;24.876;2023-05-09T12:35:03;100231.03;;;15.13;76.22
44839;BME280;30576;42.098;24.876;2023-05-09T12:37:30;100261.59;;;15.31;76.40
44839;BME280;30576;42.098;24.876;2023-05-09T12:40:08;100227.28;;;14.86;75.95
44839;BME280;30576;42.098;24.876;2023-05-09T12:42:37;100190.81;;;14.55;76.47
44839;BME280;30576;42.098;24.876;2023-05-09T12:45:03;100233.19;;;14.60;77.03
44839;BME280;30576;42.098;24.876;2023-05-09T12:47:31;100267.47;;;14.72;76.69
44839;BME280;30576;42.098;24.876;2023-05-09T12:49:58;100258.59;;;14.72;76.84
44839;BME280;30576;42.098;24.876;2023-05-09T12:52:24;100224.31;;;14.59;77.08
44839;BME280;30576;42.098;24.876;2023-05-09T12:54:51;100221.88;;;14.50;77.10
44839;BME280;30576;42.098;24.876;2023-05-09T12:57:23;100224.63;;;14.86;76.08
44839;BME280;30576;42.098;24.876;2023-05-09T12:59:57;100193.56;;;14.90;76.35
44839;BME280;30576;42.098;24.876;2023-05-09T13:02:32;100204.19;;;14.90;75.62
44839;BME280;30576;42.098;24.876;2023-05-09T13:10:16;100249.59;;;14.79;75.20
44839;BME280;30576;42.098;24.876;2023-05-09T13:12:52;100219.72;;;15.05;76.98
44839;BME280;30576;42.098;24.876;2023-05-09T13:15:20;100188.94;;;14.96;76.43
44839;BME280;30576;42.098;24.876;2023-05-09T13:17:47;100207.38;;;15.02;75.41
44839;BME280;30576;42.098;24.876;2023-05-09T13:20:13;100207.28;;;15.07;76.76